Time;durP1;ratioP1;P1;durP2;ratioP2;P2;SDS_P1;SDS_P2;PMS_P1;PMS_P2;Temp;Humidity;BMP_temperature;BMP_pressure;BME280_temperature;BME280_humidity;BME280_pressure;Samples;Min_cycle;Max_cycle;Signal;HPM_P1;HPM_P2
2023/12/15 00:02:56;;;;;;;14.80;12.00;;;24.50;52.90;;;;;;222758;1260;22662;-52
2023/12/15 00:08:01;;;;;;;15.40;11.90;;;24.40;53.10;;;;;;222580;1260;22534;-48
2023/12/15 00:13:06;;;;;;;14.80;11.90;;;24.30;52.80;;;;;;222401;1264;25609;-53
2023/12/15 00:18:10;;;;;;;13.90;11.80;;;24.20;53.10;;;;;;222108;1263;24017;-51
2023/12/15 00:23:16;;;;;;;13.20;10.60;;;24.00;53.30;;;;;;222447;1260;23907;-54
2023/12/15 00:28:20;;;;;;;13.00;11.20;;;23.90;53.40;;;;;;222708;1264;24189;-52
2023/12/15 00:33:24;;;;;;;12.60;10.70;;;23.80;53.60;;;;;;222482;1260;24222;-52
2023/12/15 00:38:29;;;;;;;13.00;10.60;;;23.70;53.80;;;;;;222561;1268;24190;-51
2023/12/15 00:43:34;;;;;;;12.50;10.30;;;23.60;53.90;;;;;;222722;1264;22587;-54
2023/12/15 00:48:38;;;;;;;12.40;10.40;;;23.40;54.30;;;;;;222671;1263;22528;-53
2023/12/15 00:53:43;;;;;;;12.10;10.20;;;23.40;54.70;;;;;;222466;1268;22544;-52
2023/12/15 00:58:48;;;;;;;11.60;10.50;;;23.50;54.60;;;;;;222639;1260;24191;-52
2023/12/15 01:03:52;;;;;;;12.70;10.00;;;23.90;53.30;;;;;;222866;1264;24221;-52
2023/12/15 01:08:56;;;;;;;13.60;10.30;;;24.10;52.80;;;;;;222661;1260;23033;-51
2023/12/15 01:14:01;;;;;;;11.30;9.70;;;24.30;52.30;;;;;;222476;1260;22521;-54
2023/12/15 01:19:05;;;;;;;12.10;8.90;;;24.40;52.40;;;;;;222451;1244;25478;-56
2023/12/15 01:24:11;;;;;;;11.80;9.30;;;24.40;52.00;;;;;;222404;1264;24234;-55
2023/12/15 01:29:16;;;;;;;12.80;9.30;;;24.20;52.00;;;;;;222781;1260;24711;-49
2023/12/15 01:34:20;;;;;;;9.90;8.30;;;24.10;52.10;;;;;;222201;1267;24249;-53
2023/12/15 01:39:25;;;;;;;10.30;9.20;;;24.00;52.40;;;;;;222436;1264;22604;-56
2023/12/15 01:44:29;;;;;;;10.30;8.40;;;23.80;52.70;;;;;;222696;1263;24208;-54
2023/12/15 01:49:33;;;;;;;11.30;8.30;;;23.80;52.80;;;;;;222407;1268;24695;-51
2023/12/15 01:54:38;;;;;;;10.30;8.40;;;23.70;52.80;;;;;;222555;1266;24059;-54
2023/12/15 01:59:49;;;;;;;8.70;7.90;;;23.60;52.90;;;;;;222290;1254;24195;-52
2023/12/15 02:04:53;;;;;;;9.00;8.10;;;23.50;53.10;;;;;;222621;1264;24336;-53
2023/12/15 02:09:58;;;;;;;8.90;8.00;;;23.40;53.10;;;;;;222532;1263;22638;-50
2023/12/15 02:15:03;;;;;;;9.50;8.50;;;23.40;53.00;;;;;;222597;1254;24308;-52
2023/12/15 02:20:07;;;;;;;8.60;7.70;;;23.60;52.80;;;;;;222459;1257;22633;-52
2023/12/15 02:25:12;;;;;;;9.20;8.00;;;24.10;52.30;;;;;;222445;1263;22518;-52
2023/12/15 02:30:16;;;;;;;8.50;7.20;;;24.40;51.60;;;;;;222689;1257;24276;-49
2023/12/15 02:35:20;;;;;;;9.20;7.50;;;24.50;50.90;;;;;;222374;1262;24246;-53
2023/12/15 02:40:25;;;;;;;8.50;7.40;;;24.60;50.70;;;;;;222660;1258;24190;-53
2023/12/15 02:45:29;;;;;;;8.30;7.40;;;24.50;50.80;;;;;;222513;1263;22540;-53
2023/12/15 02:50:33;;;;;;;7.80;6.90;;;24.50;51.10;;;;;;222430;1257;24215;-51
2023/12/15 02:55:37;;;;;;;8.50;6.40;;;24.40;51.10;;;;;;222502;1268;22528;-53
2023/12/15 03:00:41;;;;;;;8.30;7.10;;;24.10;51.70;;;;;;222439;1267;22997;-52
2023/12/15 03:05:46;;;;;;;7.70;7.00;;;24.00;52.20;;;;;;222291;1268;24355;-53
2023/12/15 03:10:51;;;;;;;8.10;7.20;;;23.90;52.30;;;;;;222248;1263;25408;-53
2023/12/15 03:16:08;;;;;;;7.90;7.10;;;23.80;52.50;;;;;;222088;1264;24192;-53
2023/12/15 03:21:12;;;;;;;9.40;7.60;;;23.70;52.20;;;;;;222375;1269;25263;-52
2023/12/15 03:26:16;;;;;;;10.80;6.90;;;23.60;52.60;;;;;;222688;1260;25158;-50
2023/12/15 03:31:20;;;;;;;8.50;7.50;;;23.60;52.50;;;;;;222591;1263;25435;-54
2023/12/15 03:36:24;;;;;;;7.00;6.30;;;23.50;52.70;;;;;;222281;1267;22524;-52
2023/12/15 03:41:28;;;;;;;8.60;6.80;;;23.40;52.70;;;;;;222503;1263;24353;-53
2023/12/15 03:46:32;;;;;;;7.00;6.30;;;23.40;52.60;;;;;;222414;1248;24257;-52
2023/12/15 03:51:36;;;;;;;10.00;6.60;;;23.80;51.90;;;;;;222242;1257;24232;-51
2023/12/15 03:56:40;;;;;;;7.00;6.30;;;24.10;51.40;;;;;;222319;1265;24310;-54
2023/12/15 04:01:44;;;;;;;6.90;6.10;;;24.30;51.00;;;;;;222261;1262;23147;-52
2023/12/15 04:06:49;;;;;;;8.90;6.70;;;24.40;50.60;;;;;;222184;1263;22558;-56
2023/12/15 04:11:53;;;;;;;6.30;5.70;;;24.40;50.50;;;;;;222171;1261;22739;-51
2023/12/15 04:16:58;;;;;;;7.00;6.30;;;24.30;50.70;;;;;;222403;1268;22525;-50
2023/12/15 04:22:03;;;;;;;8.20;6.60;;;24.20;50.90;;;;;;222351;1269;22640;-56
2023/12/15 04:27:07;;;;;;;6.60;5.90;;;24.10;51.00;;;;;;222416;1254;22827;-53
2023/12/15 04:32:13;;;;;;;6.20;5.60;;;24.00;51.20;;;;;;222603;1257;22515;-53
2023/12/15 04:37:17;;;;;;;6.40;5.70;;;23.90;51.30;;;;;;222507;1263;23148;-52
2023/12/15 04:42:21;;;;;;;6.90;6.00;;;23.80;51.30;;;;;;222444;1263;25239;-52
2023/12/15 04:47:26;;;;;;;6.70;6.10;;;23.70;51.60;;;;;;222475;1264;25370;-54
2023/12/15 04:52:30;;;;;;;6.30;5.70;;;23.60;52.50;;;;;;222632;1268;25328;-53
2023/12/15 04:57:35;;;;;;;6.60;6.00;;;23.50;51.80;;;;;;222558;1256;22520;-50
2023/12/15 05:02:39;;;;;;;6.20;5.60;;;23.50;51.90;;;;;;222469;1266;24330;-53
2023/12/15 05:07:43;;;;;;;6.50;5.80;;;23.40;52.00;;;;;;222385;1263;22599;-53
2023/12/15 05:12:48;;;;;;;6.60;6.00;;;23.50;52.30;;;;;;222293;1268;24257;-54
2023/12/15 05:17:53;;;;;;;6.30;5.60;;;24.10;51.10;;;;;;222385;1267;22531;-52
2023/12/15 05:22:57;;;;;;;6.20;5.60;;;24.40;51.00;;;;;;222668;1264;22997;-55
2023/12/15 05:28:01;;;;;;;6.10;5.50;;;24.50;50.10;;;;;;222768;1260;24325;-51
2023/12/15 05:33:06;;;;;;;6.30;5.30;;;24.50;50.20;;;;;;222375;1246;24231;-53
2023/12/15 05:38:11;;;;;;;5.80;5.20;;;24.40;50.30;;;;;;222631;1264;22523;-51
2023/12/15 05:43:16;;;;;;;5.60;5.00;;;24.30;50.70;;;;;;222625;1264;22582;-53
2023/12/15 05:48:21;;;;;;;6.00;5.40;;;24.10;51.00;;;;;;222892;1268;24231;-52
2023/12/15 05:53:25;;;;;;;6.00;5.40;;;24.00;50.90;;;;;;222565;1261;22526;-53
2023/12/15 05:58:30;;;;;;;5.20;4.80;;;23.90;51.60;;;;;;222628;1260;25880;-53
2023/12/15 06:03:34;;;;;;;5.60;5.00;;;23.80;51.60;;;;;;222441;1260;25297;-53
2023/12/15 06:08:40;;;;;;;5.50;5.00;;;23.70;51.80;;;;;;222687;1264;25224;-53
2023/12/15 06:13:44;;;;;;;6.00;5.50;;;23.60;51.70;;;;;;222542;1262;25224;-52
2023/12/15 06:18:48;;;;;;;5.70;5.20;;;23.50;51.80;;;;;;222689;1268;22571;-50
2023/12/15 06:23:54;;;;;;;6.50;5.80;;;23.40;52.00;;;;;;222333;1247;369134;-52
2023/12/15 06:28:58;;;;;;;5.20;4.70;;;23.40;52.10;;;;;;222531;1268;25380;-52
2023/12/15 06:34:03;;;;;;;5.40;4.90;;;23.30;52.20;;;;;;222500;1254;25450;-53
2023/12/15 06:39:08;;;;;;;5.50;5.00;;;23.20;52.30;;;;;;222536;1253;23920;-54
2023/12/15 06:44:12;;;;;;;5.20;4.80;;;23.20;52.40;;;;;;222922;1263;24253;-50
2023/12/15 06:49:18;;;;;;;5.10;4.60;;;23.10;52.50;;;;;;222467;1255;23890;-54
2023/12/15 06:54:23;;;;;;;4.70;4.30;;;23.00;52.50;;;;;;222491;1268;26274;-52
2023/12/15 06:59:27;;;;;;;5.80;5.20;;;23.00;52.80;;;;;;222444;1254;22527;-50
2023/12/15 07:04:31;;;;;;;5.60;5.10;;;23.10;53.40;;;;;;222788;1263;24195;-50
2023/12/15 07:09:36;;;;;;;6.80;5.00;;;23.50;52.30;;;;;;222942;1253;22522;-54
2023/12/15 07:14:40;;;;;;;7.20;4.90;;;23.90;51.50;;;;;;222589;1259;22607;-53
2023/12/15 07:19:44;;;;;;;8.00;5.30;;;24.20;51.30;;;;;;222215;1267;24258;-49
2023/12/15 07:24:49;;;;;;;14.80;4.60;;;24.30;51.10;;;;;;222469;1263;22548;-52
2023/12/15 07:29:54;;;;;;;5.20;4.40;;;24.30;51.30;;;;;;222468;1268;25271;-53
2023/12/15 07:34:58;;;;;;;7.50;4.50;;;24.10;51.70;;;;;;222499;1264;24175;-52
2023/12/15 07:40:03;;;;;;;8.20;4.80;;;24.00;51.90;;;;;;222332;1269;24209;-53
2023/12/15 07:45:08;;;;;;;8.60;5.30;;;24.10;51.80;;;;;;222571;1253;24232;-51
2023/12/15 07:50:13;;;;;;;10.00;4.50;;;24.00;51.80;;;;;;222349;1269;22514;-50
2023/12/15 07:55:18;;;;;;;12.40;5.20;;;23.60;53.10;;;;;;221843;1257;23003;-52
2023/12/15 08:07:08;;;;;;;9.30;4.90;;;23.20;53.20;;;;;;222762;1263;22518;-50
2023/12/15 08:12:12;;;;;;;10.60;4.70;;;23.20;53.50;;;;;;221078;1271;23151;-52
2023/12/15 08:17:17;;;;;;;7.20;4.70;;;23.10;53.10;;;;;;221326;1264;22611;-51
2023/12/15 08:22:22;;;;;;;8.10;5.40;;;23.00;53.30;;;;;;221198;1267;25288;-51
2023/12/15 08:27:26;;;;;;;6.50;4.80;;;22.90;53.40;;;;;;221379;1260;25233;-53
2023/12/15 08:32:31;;;;;;;6.30;4.70;;;22.80;53.40;;;;;;222606;1256;22653;-51
2023/12/15 08:37:35;;;;;;;7.40;5.00;;;22.80;53.30;;;;;;222248;1264;23117;-53
2023/12/15 08:42:41;;;;;;;7.40;5.70;;;23.40;52.30;;;;;;222455;1268;22717;-50
2023/12/15 08:47:46;;;;;;;11.30;4.90;;;23.80;51.40;;;;;;223091;1268;24241;-52
2023/12/15 08:52:50;;;;;;;14.90;5.90;;;24.10;50.80;;;;;;222318;1263;24209;-50
2023/12/15 08:57:56;;;;;;;9.00;5.20;;;24.10;50.40;;;;;;222270;1254;24176;-52
2023/12/15 09:03:00;;;;;;;13.60;6.20;;;24.10;50.80;;;;;;222298;1260;22630;-50
2023/12/15 09:08:05;;;;;;;9.60;5.00;;;24.10;52.30;;;;;;222625;1256;22507;-52
2023/12/15 09:13:11;;;;;;;13.30;4.60;;;24.00;52.90;;;;;;222281;1260;24175;-54
2023/12/15 09:18:16;;;;;;;13.10;5.60;;;23.80;52.70;;;;;;222522;1266;22542;-57
2023/12/15 09:23:22;;;;;;;8.50;5.40;;;23.70;53.00;;;;;;222926;1259;24072;-51
2023/12/15 09:28:28;;;;;;;6.10;4.40;;;23.60;53.10;;;;;;222569;1250;25343;-51
2023/12/15 09:33:32;;;;;;;8.50;5.30;;;23.50;52.90;;;;;;222456;1246;24199;-52
2023/12/15 09:38:37;;;;;;;6.70;5.00;;;23.50;52.90;;;;;;222481;1264;24243;-52
2023/12/15 09:43:41;;;;;;;6.40;4.90;;;23.50;52.60;;;;;;222425;1260;23447;-53
2023/12/15 09:48:46;;;;;;;5.50;5.00;;;23.50;52.40;;;;;;222828;1266;22526;-53
2023/12/15 09:53:53;;;;;;;6.50;4.80;;;23.40;52.70;;;;;;222504;1260;24061;-50
2023/12/15 09:58:58;;;;;;;6.30;4.40;;;23.30;53.10;;;;;;222108;1268;26563;-51
2023/12/15 10:04:03;;;;;;;6.60;5.30;;;23.20;53.20;;;;;;223045;1267;22533;-52
2023/12/15 10:09:15;;;;;;;6.20;5.60;;;23.10;53.80;;;;;;222652;1257;24326;-51
2023/12/15 10:14:20;;;;;;;43.50;22.70;;;22.90;53.80;;;;;;223185;1268;22525;-53
2023/12/15 10:19:25;;;;;;;87.20;40.20;;;22.80;54.30;;;;;;222559;1250;22516;-52
2023/12/15 10:24:33;;;;;;;85.90;41.40;;;22.80;53.50;;;;;;222539;1260;25348;-52
2023/12/15 10:29:38;;;;;;;79.70;39.60;;;23.30;52.90;;;;;;223198;1253;24252;-48
2023/12/15 10:34:44;;;;;;;80.00;38.90;;;23.70;51.80;;;;;;222362;1244;25207;-52
2023/12/15 10:39:49;;;;;;;82.40;37.20;;;23.90;51.40;;;;;;222660;1253;23882;-51
2023/12/15 10:44:55;;;;;;;72.80;36.80;;;24.10;50.80;;;;;;222798;1257;22534;-53
2023/12/15 10:50:03;;;;;;;70.50;35.50;;;24.10;50.60;;;;;;223104;1264;22525;-51
2023/12/15 10:55:11;;;;;;;67.70;35.00;;;24.20;50.90;;;;;;223140;1260;24182;-51
2023/12/15 11:00:19;;;;;;;69.00;34.90;;;24.10;50.50;;;;;;222851;1266;22527;-51
2023/12/15 11:05:26;;;;;;;67.10;34.30;;;24.00;51.30;;;;;;222752;1260;24367;-51
2023/12/15 11:10:41;;;;;;;62.10;32.50;;;23.80;50.60;;;;;;227053;1267;25315;-49
2023/12/15 11:15:45;;;;;;;58.30;29.50;;;23.70;50.90;;;;;;222075;1271;25337;-53
2023/12/15 11:20:55;;;;;;;59.50;30.60;;;23.80;51.00;;;;;;221905;1257;25520;-50
2023/12/15 11:26:00;;;;;;;58.70;30.40;;;23.60;51.40;;;;;;221723;1249;24218;-51
2023/12/15 11:31:23;;;;;;;51.20;28.80;;;23.60;51.70;;;;;;221604;1268;22530;-50
2023/12/15 11:36:41;;;;;;;56.30;27.20;;;23.60;51.70;;;;;;221482;1266;24187;-51
2023/12/15 11:41:47;;;;;;;51.40;27.50;;;23.60;51.90;;;;;;222626;1264;25531;-50
2023/12/15 11:46:53;;;;;;;48.20;26.70;;;23.30;52.40;;;;;;222606;1268;23121;-49
2023/12/15 11:51:57;;;;;;;48.50;26.30;;;23.30;52.50;;;;;;222857;1264;24186;-49
2023/12/15 11:57:05;;;;;;;42.80;24.80;;;23.20;52.60;;;;;;222684;1265;24295;-52
2023/12/15 12:02:12;;;;;;;42.40;25.00;;;23.20;52.80;;;;;;222713;1265;22803;-51
2023/12/15 12:07:17;;;;;;;40.50;24.20;;;23.00;53.30;;;;;;222419;1265;22747;-49
2023/12/15 12:12:22;;;;;;;49.80;24.00;;;23.00;53.00;;;;;;222542;1266;22520;-50
2023/12/15 12:17:26;;;;;;;41.20;23.30;;;23.00;52.90;;;;;;222450;1257;25438;-54
2023/12/15 12:22:42;;;;;;;35.30;22.20;;;23.00;52.60;;;;;;222083;1264;22592;-50
2023/12/15 12:27:46;;;;;;;38.90;23.20;;;23.00;52.40;;;;;;222855;1268;25357;-52
2023/12/15 12:32:51;;;;;;;36.00;21.20;;;22.80;53.00;;;;;;222523;1261;24137;-50
2023/12/15 12:37:56;;;;;;;33.80;21.80;;;22.70;53.00;;;;;;222577;1261;22520;-53
2023/12/15 12:43:01;;;;;;;29.80;19.70;;;23.20;52.50;;;;;;222851;1257;22524;-53
2023/12/15 12:48:06;;;;;;;33.60;19.90;;;23.70;51.00;;;;;;223011;1268;25525;-54
2023/12/15 12:53:12;;;;;;;32.50;19.20;;;24.00;50.30;;;;;;222358;1267;24225;-49
2023/12/15 12:58:16;;;;;;;26.80;18.60;;;24.10;49.90;;;;;;222613;1266;25265;-51
2023/12/15 13:03:21;;;;;;;30.10;18.70;;;24.10;50.30;;;;;;222399;1267;24277;-51
2023/12/15 13:08:25;;;;;;;26.80;17.20;;;24.00;50.00;;;;;;222887;1266;22578;-50
2023/12/15 13:13:31;;;;;;;29.30;17.50;;;23.90;51.00;;;;;;222713;1268;22501;-54
2023/12/15 13:18:35;;;;;;;27.20;17.30;;;23.90;50.70;;;;;;222967;1260;22629;-49
2023/12/15 13:23:40;;;;;;;25.00;16.60;;;23.80;51.10;;;;;;222743;1261;22508;-52
2023/12/15 13:28:45;;;;;;;81.30;36.70;;;23.70;52.00;;;;;;222625;1257;24243;-53
2023/12/15 13:33:50;;;;;;;69.40;33.60;;;23.60;51.90;;;;;;222661;1260;24497;-49
2023/12/15 13:38:55;;;;;;;66.80;31.20;;;23.50;51.50;;;;;;222872;1268;24192;-49
2023/12/15 13:44:00;;;;;;;52.30;27.50;;;23.30;52.20;;;;;;222595;1261;22521;-55
2023/12/15 13:49:05;;;;;;;55.00;27.70;;;23.40;52.80;;;;;;222648;1266;24202;-50
2023/12/15 13:54:11;;;;;;;50.00;25.60;;;23.20;53.70;;;;;;222767;1261;24253;-52
2023/12/15 13:59:16;;;;;;;50.20;25.50;;;23.10;55.20;;;;;;222790;1247;24117;-52
2023/12/15 14:04:22;;;;;;;46.10;25.00;;;23.10;54.80;;;;;;222607;1267;25091;-52
2023/12/15 14:09:30;;;;;;;44.50;23.60;;;23.10;54.90;;;;;;222732;1260;22524;-51
2023/12/15 14:14:35;;;;;;;44.30;21.90;;;23.10;54.80;;;;;;222625;1263;25399;-50
2023/12/15 14:19:40;;;;;;;40.10;20.90;;;23.00;54.60;;;;;;222798;1266;24234;-48
2023/12/15 14:24:46;;;;;;;40.70;22.80;;;23.00;54.40;;;;;;222720;1247;22536;-51
2023/12/15 14:29:51;;;;;;;33.30;20.00;;;22.90;55.20;;;;;;222829;1257;24308;-51
2023/12/15 14:34:56;;;;;;;32.10;19.90;;;23.00;54.30;;;;;;222917;1263;25309;-50
2023/12/15 14:40:04;;;;;;;30.90;19.90;;;23.10;54.20;;;;;;222790;1261;24250;-50
2023/12/15 14:45:09;;;;;;;30.40;17.80;;;23.50;54.10;;;;;;222673;1268;22577;-48
2023/12/15 14:50:14;;;;;;;31.20;17.80;;;23.80;53.90;;;;;;222619;1266;24215;-49
2023/12/15 14:55:18;;;;;;;29.00;16.90;;;23.90;53.20;;;;;;222227;1263;22642;-51
2023/12/15 15:00:22;;;;;;;28.00;16.40;;;23.90;52.30;;;;;;222061;1263;22778;-51
2023/12/15 15:05:27;;;;;;;28.50;14.50;;;23.80;52.50;;;;;;222473;1264;23424;-48
2023/12/15 15:10:32;;;;;;;22.40;14.60;;;23.80;52.60;;;;;;222414;1266;22543;-50
2023/12/15 15:15:37;;;;;;;21.60;14.80;;;23.70;53.00;;;;;;222546;1266;23391;-50
2023/12/15 15:20:41;;;;;;;24.90;14.80;;;23.60;54.10;;;;;;222066;1269;22530;-51
2023/12/15 15:25:46;;;;;;;20.20;13.60;;;23.50;53.70;;;;;;222290;1266;24222;-52
2023/12/15 15:30:51;;;;;;;23.60;13.90;;;23.40;53.70;;;;;;222664;1265;22543;-50
2023/12/15 15:35:55;;;;;;;24.70;13.60;;;23.30;53.70;;;;;;222680;1263;25321;-50
2023/12/15 15:41:03;;;;;;;22.50;14.10;;;23.20;53.70;;;;;;224889;1266;25362;-50
2023/12/15 15:46:18;;;;;;;22.40;13.40;;;23.10;53.60;;;;;;222457;1268;23567;-51
2023/12/15 15:51:24;;;;;;;21.30;12.50;;;23.10;53.30;;;;;;222339;1265;26181;-53
2023/12/15 15:56:28;;;;;;;23.70;12.50;;;23.10;54.10;;;;;;221111;1270;22579;-52
2023/12/15 16:01:33;;;;;;;18.40;11.70;;;23.20;55.80;;;;;;221324;1272;25237;-52
2023/12/15 16:06:47;;;;;;;22.00;12.20;;;23.30;56.70;;;;;;221402;1269;22544;-54
2023/12/15 16:11:52;;;;;;;19.50;11.90;;;23.30;59.30;;;;;;221320;1269;23847;-53
2023/12/15 16:16:56;;;;;;;17.20;11.50;;;23.30;60.70;;;;;;221262;1269;23775;-50
2023/12/15 16:22:03;;;;;;;16.80;11.00;;;23.30;60.20;;;;;;222155;1260;22532;-51
2023/12/15 16:27:08;;;;;;;14.10;10.90;;;23.20;60.80;;;;;;222464;1253;22836;-51
2023/12/15 16:32:14;;;;;;;16.70;10.60;;;23.10;60.00;;;;;;222663;1263;24055;-53
2023/12/15 16:37:18;;;;;;;14.50;10.50;;;23.10;60.30;;;;;;222416;1266;22647;-49
2023/12/15 16:42:23;;;;;;;23.00;10.20;;;23.10;60.00;;;;;;222366;1269;22530;-51
2023/12/15 16:47:27;;;;;;;13.90;9.60;;;23.00;60.00;;;;;;222564;1264;22514;-50
2023/12/15 16:52:32;;;;;;;16.00;10.50;;;23.10;60.00;;;;;;222892;1266;27290;-51
2023/12/15 16:57:39;;;;;;;18.70;10.00;;;23.10;59.50;;;;;;222518;1266;22537;-51
2023/12/15 17:02:47;;;;;;;14.30;9.00;;;23.00;59.30;;;;;;222721;1263;26295;-52
2023/12/15 17:07:53;;;;;;;11.80;8.30;;;23.00;59.20;;;;;;222783;1254;23013;-49
2023/12/15 17:12:58;;;;;;;12.00;8.00;;;22.90;58.90;;;;;;222542;1266;22510;-53
2023/12/15 17:18:05;;;;;;;10.20;8.50;;;22.80;58.80;;;;;;222237;1268;22518;-50
2023/12/15 17:23:13;;;;;;;13.40;8.80;;;23.40;57.70;;;;;;222685;1266;25400;-51
2023/12/15 17:28:18;;;;;;;10.10;7.60;;;23.90;56.30;;;;;;222040;1268;23009;-51
2023/12/15 17:33:23;;;;;;;11.40;7.70;;;24.20;55.30;;;;;;222565;1260;22663;-50
2023/12/15 17:38:28;;;;;;;10.50;7.50;;;24.20;54.90;;;;;;222735;1267;22626;-51
2023/12/15 17:43:33;;;;;;;10.80;7.70;;;24.20;55.10;;;;;;222264;1260;24225;-50
2023/12/15 17:48:38;;;;;;;9.90;7.50;;;24.10;55.90;;;;;;222925;1264;22517;-51
2023/12/15 17:53:43;;;;;;;15.40;7.50;;;24.00;54.80;;;;;;222655;1267;25322;-51
2023/12/15 17:58:48;;;;;;;13.60;6.90;;;23.80;55.50;;;;;;222584;1263;25294;-53
2023/12/15 18:03:53;;;;;;;11.70;6.70;;;23.70;55.50;;;;;;222554;1264;22530;-53
2023/12/15 18:08:59;;;;;;;12.70;6.70;;;23.50;55.60;;;;;;222519;1253;23886;-53
2023/12/15 18:14:09;;;;;;;12.30;6.50;;;23.40;55.90;;;;;;222547;1251;26512;-52
2023/12/15 18:19:16;;;;;;;16.10;7.10;;;23.30;56.40;;;;;;222594;1260;22514;-51
2023/12/15 18:24:22;;;;;;;9.90;6.50;;;23.20;56.80;;;;;;221744;1269;793147;-55
2023/12/15 18:29:28;;;;;;;8.40;6.50;;;23.20;56.60;;;;;;222473;1260;22557;-53
2023/12/15 18:34:33;;;;;;;12.30;6.90;;;23.10;56.70;;;;;;222058;1261;24317;-55
2023/12/15 18:39:38;;;;;;;11.90;6.80;;;23.10;56.60;;;;;;222839;1266;23940;-55
2023/12/15 18:44:44;;;;;;;16.10;8.50;;;22.90;56.90;;;;;;222510;1256;22881;-53
2023/12/15 18:49:49;;;;;;;13.50;9.20;;;22.90;57.40;;;;;;222601;1263;22530;-53
2023/12/15 18:55:24;;;;;;;14.00;7.80;;;22.70;58.80;;;;;;222825;1266;25265;-54
2023/12/15 19:00:29;;;;;;;15.30;7.00;;;22.90;60.20;;;;;;222656;1254;22524;-53
2023/12/15 19:05:34;;;;;;;12.00;7.40;;;22.90;58.90;;;;;;222668;1266;23402;-55
2023/12/15 19:10:41;;;;;;;13.90;8.10;;;22.80;58.60;;;;;;222476;1261;24058;-55
2023/12/15 19:15:46;;;;;;;13.70;7.40;;;22.70;58.30;;;;;;222233;1264;22517;-56
2023/12/15 19:20:51;;;;;;;15.10;7.90;;;22.70;57.70;;;;;;222580;1253;22640;-52
2023/12/15 19:25:56;;;;;;;14.80;7.00;;;23.10;57.50;;;;;;222549;1266;22520;-53
2023/12/15 19:31:02;;;;;;;12.10;6.30;;;23.50;56.20;;;;;;222798;1268;22533;-55
2023/12/15 19:36:07;;;;;;;13.50;6.80;;;23.60;56.40;;;;;;222129;1261;23285;-54
2023/12/15 19:41:18;;;;;;;9.80;6.40;;;23.90;56.40;;;;;;222415;1264;22580;-53
2023/12/15 19:46:31;;;;;;;15.10;6.40;;;24.10;56.50;;;;;;222276;1266;24190;-53
2023/12/15 19:51:36;;;;;;;12.40;6.90;;;24.10;55.40;;;;;;222474;1267;24179;-53
2023/12/15 19:56:42;;;;;;;12.50;5.80;;;24.00;54.20;;;;;;222468;1261;25370;-50
2023/12/15 20:01:55;;;;;;;;;;;23.80;54.60;;;;;;222509;1261;22519;-50
2023/12/15 20:07:05;;;;;;;11.30;6.20;;;23.90;54.80;;;;;;222418;1263;24239;-53
2023/12/15 20:12:19;;;;;;;10.30;6.40;;;23.80;54.90;;;;;;222181;1260;22636;-51
2023/12/15 20:17:39;;;;;;;13.10;6.00;;;23.70;55.10;;;;;;222514;1267;22568;-51
2023/12/15 20:22:54;;;;;;;21.10;6.60;;;23.70;55.50;;;;;;222532;1264;25262;-51
2023/12/15 20:28:13;;;;;;;9.80;6.10;;;23.70;55.00;;;;;;222384;1268;24518;-47
2023/12/15 20:33:36;;;;;;;12.10;6.00;;;23.70;54.90;;;;;;223062;1260;25526;-51
2023/12/15 20:38:59;;;;;;;13.80;5.90;;;23.40;55.30;;;;;;222444;1264;25395;-57
2023/12/15 20:44:17;;;;;;;17.30;6.60;;;23.40;55.30;;;;;;222767;1261;22573;-51
2023/12/15 20:49:30;;;;;;;10.50;6.30;;;23.30;55.10;;;;;;222784;1260;22514;-50
2023/12/15 20:54:53;;;;;;;9.60;5.80;;;23.30;54.80;;;;;;222584;1264;22517;-50
2023/12/15 21:00:19;;;;;;;8.30;5.60;;;23.20;54.20;;;;;;222848;1268;24161;-56
2023/12/15 21:05:39;;;;;;;8.70;5.80;;;23.20;54.70;;;;;;222841;1264;22529;-56
2023/12/15 21:11:04;;;;;;;12.50;5.80;;;23.00;55.20;;;;;;222570;1267;22640;-57
2023/12/15 21:16:30;;;;;;;9.90;5.70;;;23.00;54.70;;;;;;222793;1266;22540;-58
2023/12/15 21:21:56;;;;;;;8.40;5.30;;;23.00;55.20;;;;;;222461;1267;22528;-57
2023/12/15 21:27:14;;;;;;;9.50;5.90;;;23.30;54.70;;;;;;222683;1267;24496;-51
2023/12/15 21:32:21;;;;;;;6.00;4.90;;;23.60;54.00;;;;;;222237;1269;25490;-51
2023/12/15 21:37:26;;;;;;;8.00;4.80;;;23.70;53.50;;;;;;222267;1267;24193;-53
2023/12/15 21:42:31;;;;;;;5.70;4.60;;;23.70;53.40;;;;;;222358;1261;24242;-54
2023/12/15 21:47:38;;;;;;;5.90;4.70;;;23.80;53.40;;;;;;222345;1264;22563;-53
2023/12/15 21:52:44;;;;;;;7.90;4.80;;;23.70;53.90;;;;;;222443;1264;25369;-56
2023/12/15 21:57:49;;;;;;;9.90;5.20;;;23.90;55.60;;;;;;222927;1269;26558;-55
2023/12/15 22:02:57;;;;;;;7.20;4.90;;;23.80;54.90;;;;;;222509;1264;22543;-48
2023/12/15 22:08:03;;;;;;;11.10;5.00;;;23.80;53.80;;;;;;222254;1267;26648;-51
2023/12/15 22:13:08;;;;;;;7.10;5.30;;;23.70;54.50;;;;;;222613;1260;22617;-46
2023/12/15 22:18:13;;;;;;;11.60;4.50;;;23.80;54.50;;;;;;222462;1260;25277;-48
2023/12/15 22:23:18;;;;;;;7.80;4.60;;;23.70;54.60;;;;;;222705;1257;22527;-47
2023/12/15 22:28:22;;;;;;;12.90;4.70;;;23.70;56.00;;;;;;222628;1254;22518;-50
2023/12/15 22:33:28;;;;;;;7.40;4.40;;;23.70;56.40;;;;;;222232;1260;24250;-49
2023/12/15 22:38:35;;;;;;;9.60;4.70;;;23.60;56.20;;;;;;222556;1268;25468;-48
2023/12/15 22:43:43;;;;;;;5.90;4.00;;;23.60;55.80;;;;;;222501;1264;22520;-48
2023/12/15 22:48:47;;;;;;;7.60;5.00;;;23.40;56.30;;;;;;222392;1260;24212;-52
2023/12/15 22:53:52;;;;;;;7.50;4.10;;;23.40;56.30;;;;;;222703;1260;22679;-50
2023/12/15 22:58:56;;;;;;;5.60;4.00;;;23.30;56.30;;;;;;222622;1267;24318;-48
2023/12/15 23:04:01;;;;;;;6.90;4.80;;;23.30;56.60;;;;;;222385;1253;25366;-51
2023/12/15 23:09:06;;;;;;;8.20;4.20;;;23.50;56.10;;;;;;222572;1264;25816;-52
2023/12/15 23:14:14;;;;;;;7.70;4.70;;;23.90;55.40;;;;;;222092;1264;23014;-52
2023/12/15 23:19:18;;;;;;;5.40;3.80;;;24.10;54.70;;;;;;222493;1268;22623;-47
2023/12/15 23:24:23;;;;;;;10.20;4.30;;;24.20;54.40;;;;;;222172;1269;25632;-49
2023/12/15 23:29:27;;;;;;;4.60;4.10;;;24.30;54.20;;;;;;222273;1268;22573;-51
2023/12/15 23:34:35;;;;;;;5.60;3.90;;;24.20;54.50;;;;;;222323;1266;25485;-50
2023/12/15 23:39:40;;;;;;;5.10;3.80;;;24.20;54.20;;;;;;222007;1263;22520;-49
2023/12/15 23:44:44;;;;;;;3.60;3.30;;;24.10;54.70;;;;;;222400;1263;23556;-51
2023/12/15 23:49:49;;;;;;;4.90;3.90;;;24.00;54.40;;;;;;222618;1268;24211;-51
2023/12/15 23:54:55;;;;;;;5.30;3.80;;;24.00;54.50;;;;;;222251;1264;22647;-48
